createdAt,value
2018-10-07T00:36:20.390Z,11.43
2018-10-07T00:38:48.856Z,10.50
2018-10-07T00:41:17.410Z,10.70
2018-10-07T00:43:45.978Z,10.90
2018-10-07T00:46:14.359Z,10.37
2018-10-07T00:48:42.796Z,10.07
2018-10-07T00:51:11.326Z,10.57
2018-10-07T00:53:39.858Z,11.03
2018-10-07T00:56:08.329Z,10.40
2018-10-07T00:58:36.738Z,10.80
2018-10-07T01:01:05.259Z,10.40
2018-10-07T01:03:33.749Z,11.30
2018-10-07T01:06:02.259Z,10.13
2018-10-07T01:08:30.682Z,10.43
2018-10-07T01:10:59.043Z,10.53
2018-10-07T01:13:27.438Z,11.40
2018-10-07T01:15:55.910Z,11.47
2018-10-07T01:18:24.289Z,10.10
2018-10-07T01:20:52.768Z,9.93
2018-10-07T01:23:21.162Z,10.50
2018-10-07T01:25:49.565Z,9.97
2018-10-07T01:28:18.029Z,10.90
2018-10-07T01:30:46.495Z,10.97
2018-10-07T01:33:14.886Z,10.00
2018-10-07T01:35:43.362Z,10.47
2018-10-07T01:38:11.834Z,10.70
2018-10-07T01:40:40.242Z,9.60
2018-10-07T01:43:08.646Z,11.50
2018-10-07T01:45:37.050Z,10.60
2018-10-07T01:48:05.829Z,11.43
2018-10-07T01:50:34.252Z,9.60
2018-10-07T01:53:02.636Z,10.67
2018-10-07T01:55:31.102Z,10.50
2018-10-07T01:57:59.471Z,10.97
2018-10-07T02:00:27.967Z,9.93
2018-10-07T02:02:56.342Z,11.30
2018-10-07T02:05:24.764Z,11.37
2018-10-07T02:07:53.299Z,10.47
2018-10-07T02:10:21.708Z,11.10
2018-10-07T02:12:50.134Z,10.85
2018-10-07T02:15:18.658Z,10.53
2018-10-07T02:17:47.126Z,10.70
2018-10-07T02:20:15.521Z,10.23
2018-10-07T02:22:43.891Z,10.20
2018-10-07T02:25:12.392Z,9.30
2018-10-07T02:27:40.890Z,10.30
2018-10-07T02:30:09.433Z,9.90
2018-10-07T02:32:37.786Z,10.87
2018-10-07T02:35:06.346Z,9.27
2018-10-07T02:37:34.739Z,9.50
2018-10-07T02:40:03.259Z,9.77
2018-10-07T02:42:31.634Z,11.30
2018-10-07T02:45:00.059Z,10.00
2018-10-07T02:47:28.623Z,10.10
2018-10-07T02:49:57.065Z,11.07
2018-10-07T02:52:30.884Z,11.70
2018-10-07T02:54:59.406Z,11.23
2018-10-07T02:57:28.193Z,10.00
2018-10-07T02:59:56.730Z,10.40
2018-10-07T03:02:25.163Z,10.80
2018-10-07T03:04:53.571Z,9.60
2018-10-07T03:07:22.019Z,10.10
2018-10-07T03:09:50.490Z,10.90
2018-10-07T03:12:18.923Z,10.80
2018-10-07T03:14:47.438Z,11.00
2018-10-07T03:17:15.989Z,10.70
2018-10-07T03:19:44.380Z,10.00
2018-10-07T03:22:12.787Z,10.70
2018-10-07T03:24:41.190Z,10.30
2018-10-07T03:27:09.667Z,11.50
2018-10-07T03:29:38.105Z,10.13
2018-10-07T03:32:06.740Z,9.60
2018-10-07T03:34:35.226Z,10.57
2018-10-07T03:37:04.457Z,9.43
2018-10-07T03:39:32.877Z,10.83
2018-10-07T03:42:01.261Z,10.00
2018-10-07T03:44:29.766Z,10.60
2018-10-07T03:46:58.274Z,10.17
2018-10-07T03:49:26.754Z,10.73
2018-10-07T03:51:55.327Z,10.33
2018-10-07T03:54:23.692Z,10.40
2018-10-07T03:56:52.093Z,10.10
2018-10-07T03:59:20.590Z,10.33
2018-10-07T04:01:49.139Z,11.50
2018-10-07T04:04:17.554Z,10.10
2018-10-07T04:06:46.062Z,10.10
2018-10-07T04:09:14.454Z,10.60
2018-10-07T04:11:43.567Z,10.50
2018-10-07T04:14:13.059Z,10.97
2018-10-07T04:16:41.437Z,10.37
2018-10-07T04:19:10.943Z,10.60
2018-10-07T04:21:43.054Z,11.07
2018-10-07T04:24:11.749Z,11.80
2018-10-07T04:26:40.267Z,9.37
2018-10-07T04:29:08.774Z,12.57
2018-10-07T04:31:37.234Z,10.30
2018-10-07T04:34:05.727Z,11.33
2018-10-07T04:36:34.142Z,10.30
2018-10-07T04:39:02.689Z,10.77
2018-10-07T04:41:31.027Z,9.97
2018-10-07T04:43:59.479Z,10.70
2018-10-07T04:46:27.976Z,11.80
2018-10-07T04:48:56.341Z,10.50
2018-10-07T04:51:24.839Z,11.03
2018-10-07T04:53:53.250Z,11.50
2018-10-07T04:56:21.618Z,10.20
2018-10-07T04:58:50.109Z,11.10
2018-10-07T05:01:18.558Z,11.48
2018-10-07T05:03:47.075Z,11.55
2018-10-07T05:06:15.678Z,10.55
2018-10-07T05:08:44.130Z,10.45
2018-10-07T05:11:13.010Z,10.45
2018-10-07T05:13:55.609Z,10.90
2018-10-07T05:16:49.424Z,11.55
2018-10-07T05:19:17.864Z,10.82
2018-10-07T05:21:46.424Z,10.90
2018-10-07T05:24:14.964Z,11.70
2018-10-07T05:26:43.507Z,10.90
2018-10-07T05:29:11.963Z,11.40
2018-10-07T05:31:40.455Z,11.45
2018-10-07T05:34:08.958Z,11.40
2018-10-07T05:36:37.475Z,11.12
2018-10-07T05:39:08.291Z,11.00
2018-10-07T05:41:36.839Z,10.82
2018-10-07T05:44:05.350Z,10.43
2018-10-07T05:46:33.882Z,10.80
2018-10-07T05:49:02.246Z,11.10
2018-10-07T05:51:30.811Z,11.15
2018-10-07T05:53:59.355Z,11.40
2018-10-07T05:56:27.991Z,10.80
2018-10-07T05:58:57.909Z,11.50
2018-10-07T06:01:36.884Z,11.20
2018-10-07T06:04:11.585Z,11.30
2018-10-07T06:06:40.378Z,11.28
2018-10-07T06:09:12.903Z,11.50
2018-10-07T06:11:41.501Z,11.70
2018-10-07T06:14:21.722Z,11.30
2018-10-07T06:16:50.294Z,11.50
2018-10-07T06:19:18.792Z,11.18
2018-10-07T06:21:47.223Z,10.53
2018-10-07T06:24:15.781Z,10.98
2018-10-07T06:26:44.253Z,11.10
2018-10-07T06:29:12.710Z,11.50
2018-10-07T06:31:41.130Z,11.03
2018-10-07T06:34:09.562Z,11.90
2018-10-07T06:36:38.081Z,11.38
2018-10-07T06:39:06.478Z,11.13
2018-10-07T06:41:35.117Z,12.03
2018-10-07T06:44:03.733Z,11.73
2018-10-07T06:46:32.151Z,11.40
2018-10-07T06:49:00.671Z,11.75
2018-10-07T06:51:29.274Z,12.23
2018-10-07T06:53:57.694Z,11.45
2018-10-07T06:56:26.282Z,11.50
2018-10-07T06:58:54.831Z,11.63
2018-10-07T07:01:23.342Z,12.10
2018-10-07T07:03:52.242Z,11.70
2018-10-07T07:06:20.820Z,11.33
2018-10-07T07:08:49.240Z,11.97
2018-10-07T07:11:17.769Z,12.10
2018-10-07T07:13:46.279Z,11.43
2018-10-07T07:16:14.773Z,11.95
2018-10-07T07:18:43.218Z,11.33
2018-10-07T07:21:12.435Z,11.15
2018-10-07T07:23:41.309Z,12.35
2018-10-07T07:26:09.920Z,12.90
2018-10-07T07:28:38.383Z,12.60
2018-10-07T07:31:06.946Z,11.50
2018-10-07T07:33:35.372Z,12.23
2018-10-07T07:36:03.814Z,12.03
2018-10-07T07:38:32.232Z,12.20
2018-10-07T07:41:00.814Z,11.88
2018-10-07T07:43:29.334Z,12.10
2018-10-07T07:45:57.865Z,10.93
2018-10-07T07:48:26.441Z,12.00
2018-10-07T07:50:55.129Z,13.33
2018-10-07T07:53:23.589Z,12.23
2018-10-07T07:55:52.070Z,12.75
2018-10-07T07:58:20.602Z,13.07
2018-10-07T08:00:49.143Z,11.70
2018-10-07T08:03:17.691Z,11.40
2018-10-07T08:05:46.113Z,11.10
2018-10-07T08:08:14.493Z,11.40
2018-10-07T08:10:42.995Z,11.22
2018-10-07T08:13:11.458Z,11.10
2018-10-07T08:15:39.961Z,10.30
2018-10-07T08:18:08.452Z,10.40
2018-10-07T08:20:36.998Z,10.60
2018-10-07T08:23:05.511Z,9.50
2018-10-07T08:25:33.917Z,8.60
2018-10-07T08:28:02.342Z,8.40
2018-10-07T08:30:30.699Z,8.57
2018-10-07T08:32:59.116Z,8.80
2018-10-07T08:35:27.578Z,7.77
2018-10-07T08:37:55.995Z,7.03
2018-10-07T08:40:24.411Z,7.67
2018-10-07T08:42:52.986Z,6.23
2018-10-07T08:45:21.431Z,7.00
2018-10-07T08:47:49.887Z,8.50
2018-10-07T08:50:18.307Z,7.63
2018-10-07T08:52:46.824Z,7.23
2018-10-07T08:55:15.285Z,7.30
2018-10-07T08:57:43.823Z,7.60
2018-10-07T09:00:12.378Z,7.50
2018-10-07T09:02:40.854Z,7.27
2018-10-07T09:05:09.407Z,7.47
2018-10-07T09:07:37.905Z,7.30
2018-10-07T09:10:06.480Z,7.77
2018-10-07T09:12:34.909Z,7.70
2018-10-07T09:15:03.349Z,8.40
2018-10-07T09:17:32.043Z,7.07
2018-10-07T09:20:00.501Z,7.37
2018-10-07T09:22:28.995Z,7.50
2018-10-07T09:24:57.433Z,9.60
2018-10-07T09:27:25.991Z,7.40
2018-10-07T09:29:54.590Z,6.30
2018-10-07T09:32:23.194Z,5.93
2018-10-07T09:34:51.610Z,6.20
2018-10-07T09:37:20.050Z,5.97
2018-10-07T09:39:48.607Z,5.80
2018-10-07T09:42:17.114Z,6.07
2018-10-07T09:44:45.761Z,4.90
2018-10-07T09:47:14.330Z,4.77
2018-10-07T09:49:42.795Z,5.60
2018-10-07T09:52:11.450Z,5.40
2018-10-07T09:54:39.981Z,5.77
2018-10-07T09:57:08.602Z,5.27
2018-10-07T09:59:37.000Z,5.70
2018-10-07T10:02:05.645Z,5.20
2018-10-07T10:04:34.254Z,5.40
2018-10-07T10:07:02.694Z,5.17
2018-10-07T10:09:31.365Z,4.50
2018-10-07T10:11:59.942Z,5.30
2018-10-07T10:14:28.584Z,5.43
2018-10-07T10:17:06.545Z,4.57
2018-10-07T10:20:12.238Z,5.00
2018-10-07T10:22:57.071Z,5.63
2018-10-07T10:25:46.657Z,4.43
2018-10-07T10:28:17.651Z,5.70
2018-10-07T10:31:00.197Z,5.87
2018-10-07T10:33:32.159Z,5.47
2018-10-07T10:36:11.305Z,4.50
2018-10-07T10:38:47.081Z,6.20
2018-10-07T10:41:26.259Z,5.23
2018-10-07T10:43:57.449Z,5.13
2018-10-07T10:46:37.624Z,4.70
2018-10-07T10:49:19.705Z,5.20
2018-10-07T10:52:06.809Z,5.20
2018-10-07T10:54:44.926Z,5.07
2018-10-07T10:57:17.707Z,5.03
2018-10-07T10:59:59.958Z,5.50
2018-10-07T11:03:35.744Z,4.77
2018-10-07T11:06:13.012Z,4.67
2018-10-07T11:09:07.510Z,4.50
2018-10-07T11:13:18.067Z,4.87
2018-10-07T11:16:52.297Z,4.43
2018-10-07T11:19:32.565Z,4.33
2018-10-07T11:24:15.455Z,4.70
2018-10-07T11:27:02.598Z,3.93
2018-10-07T11:29:49.395Z,4.90
2018-10-07T11:33:26.149Z,4.37
2018-10-07T11:36:04.453Z,4.43
2018-10-07T11:39:12.249Z,4.10
2018-10-07T11:41:46.513Z,4.90
2018-10-07T11:44:22.554Z,4.77
2018-10-07T11:47:26.013Z,3.97
2018-10-07T11:50:08.979Z,4.77
2018-10-07T11:52:57.262Z,4.50
2018-10-07T11:55:25.689Z,4.10
2018-10-07T11:57:54.245Z,4.23
2018-10-07T12:00:22.823Z,3.50
2018-10-07T12:02:51.330Z,5.10
2018-10-07T12:05:19.760Z,3.80
2018-10-07T12:07:48.222Z,3.67
2018-10-07T12:10:16.737Z,4.00
2018-10-07T12:12:45.225Z,3.67
2018-10-07T12:15:13.698Z,3.90
2018-10-07T12:17:42.173Z,4.63
2018-10-07T12:20:10.834Z,4.03
2018-10-07T12:22:39.233Z,3.90
2018-10-07T12:25:07.782Z,5.00
2018-10-07T12:27:36.235Z,5.33
2018-10-07T12:30:04.907Z,4.77
2018-10-07T12:32:33.395Z,4.40
2018-10-07T12:35:02.267Z,3.77
2018-10-07T12:37:30.730Z,3.57
2018-10-07T12:39:59.183Z,4.20
2018-10-07T12:42:27.827Z,4.77
2018-10-07T12:44:56.282Z,3.67
2018-10-07T12:47:24.908Z,4.13
2018-10-07T12:49:53.275Z,3.80
2018-10-07T12:52:21.712Z,3.33
2018-10-07T12:54:50.179Z,3.80
2018-10-07T12:57:18.641Z,3.97
2018-10-07T12:59:47.047Z,4.33
2018-10-07T13:02:15.659Z,3.97
2018-10-07T13:04:44.086Z,4.20
2018-10-07T13:07:12.576Z,3.60
2018-10-07T13:09:41.157Z,4.00
2018-10-07T13:12:09.621Z,3.37
2018-10-07T13:14:38.182Z,4.70
2018-10-07T13:17:07.044Z,3.73
2018-10-07T13:19:35.503Z,4.00
2018-10-07T13:22:04.062Z,4.47
2018-10-07T13:24:32.679Z,4.00
2018-10-07T13:27:01.121Z,3.73
2018-10-07T13:29:29.564Z,3.50
2018-10-07T13:31:58.021Z,3.43
2018-10-07T13:34:26.450Z,4.00
2018-10-07T13:36:55.019Z,3.90
2018-10-07T13:39:23.601Z,3.97
2018-10-07T13:41:52.008Z,3.97
2018-10-07T13:44:20.535Z,3.50
2018-10-07T13:46:49.055Z,4.10
2018-10-07T13:49:17.644Z,4.30
2018-10-07T13:51:46.060Z,3.83
2018-10-07T13:54:14.550Z,4.20
2018-10-07T13:56:43.077Z,3.83
2018-10-07T13:59:11.464Z,4.23
2018-10-07T14:01:39.950Z,3.80
2018-10-07T14:04:12.257Z,3.40
2018-10-07T14:06:40.831Z,3.67
2018-10-07T14:09:09.899Z,4.10
2018-10-07T14:11:38.452Z,3.83
2018-10-07T14:14:06.892Z,3.90
2018-10-07T14:16:35.439Z,4.00
2018-10-07T14:19:03.972Z,3.93
2018-10-07T14:21:32.471Z,4.63
2018-10-07T14:24:01.069Z,3.63
2018-10-07T14:26:29.800Z,4.00
2018-10-07T14:28:58.394Z,3.80
2018-10-07T14:31:26.923Z,4.00
2018-10-07T14:33:55.478Z,4.60
2018-10-07T14:36:24.092Z,4.10
2018-10-07T14:38:52.710Z,3.70
2018-10-07T14:41:21.175Z,5.80
2018-10-07T14:43:49.645Z,4.70
2018-10-07T14:46:18.117Z,4.33
2018-10-07T14:48:46.556Z,5.00
2018-10-07T14:51:15.045Z,4.73
2018-10-07T14:53:43.563Z,3.80
2018-10-07T14:56:12.183Z,3.40
2018-10-07T14:58:40.683Z,4.40
2018-10-07T15:01:09.179Z,3.50
2018-10-07T15:03:37.647Z,4.20
2018-10-07T15:06:06.106Z,3.60
2018-10-07T15:08:34.558Z,4.40
2018-10-07T15:11:03.006Z,4.10
2018-10-07T15:13:31.440Z,4.67
2018-10-07T15:16:00.124Z,4.63
2018-10-07T15:18:28.654Z,3.73
2018-10-07T15:20:58.274Z,3.87
2018-10-07T15:23:26.796Z,4.17
2018-10-07T15:25:55.399Z,3.70
2018-10-07T15:28:24.161Z,4.90
2018-10-07T15:30:52.662Z,4.50
2018-10-07T15:33:21.127Z,5.00
2018-10-07T15:35:49.647Z,4.13
2018-10-07T15:38:18.036Z,3.97
2018-10-07T15:40:46.453Z,4.23
2018-10-07T15:43:14.977Z,4.13
2018-10-07T15:45:43.443Z,3.57
2018-10-07T15:48:11.871Z,3.87
2018-10-07T15:50:40.272Z,5.60
2018-10-07T15:53:08.866Z,4.80
2018-10-07T15:55:38.371Z,4.80
2018-10-07T15:58:06.860Z,4.50
2018-10-07T16:00:35.687Z,4.90
2018-10-07T16:03:04.235Z,3.40
2018-10-07T16:05:32.778Z,4.97
2018-10-07T16:08:01.381Z,4.07
2018-10-07T16:10:29.881Z,5.17
2018-10-07T16:12:58.920Z,4.50
2018-10-07T16:15:27.408Z,5.50
2018-10-07T16:17:55.868Z,4.47
2018-10-07T16:20:24.389Z,4.70
2018-10-07T16:22:52.963Z,4.70
2018-10-07T16:25:21.519Z,6.20
2018-10-07T16:27:50.203Z,5.60
2018-10-07T16:30:19.000Z,5.13
2018-10-07T16:32:47.383Z,5.00
2018-10-07T16:35:16.031Z,5.17
2018-10-07T16:37:44.650Z,5.90
2018-10-07T16:40:13.167Z,5.70
2018-10-07T16:42:41.862Z,5.60
2018-10-07T16:45:10.400Z,6.10
2018-10-07T16:47:38.825Z,5.60
2018-10-07T16:50:07.805Z,6.03
2018-10-07T16:52:36.294Z,6.30
2018-10-07T16:55:04.859Z,6.57
2018-10-07T16:57:33.227Z,6.23
2018-10-07T17:00:01.891Z,6.27
2018-10-07T17:02:30.543Z,7.83
2018-10-07T17:04:59.271Z,7.97
2018-10-07T17:07:27.934Z,7.53
2018-10-07T17:09:56.483Z,7.20
2018-10-07T17:12:25.079Z,8.30
2018-10-07T17:14:53.882Z,7.40
2018-10-07T17:17:29.014Z,7.97
2018-10-07T17:19:57.434Z,7.80
2018-10-07T17:22:25.944Z,7.73
2018-10-07T17:24:54.461Z,8.67
2018-10-07T17:27:22.958Z,8.10
2018-10-07T17:29:51.389Z,8.10
2018-10-07T17:32:19.959Z,7.50
2018-10-07T17:34:48.511Z,8.43
2018-10-07T17:37:16.974Z,7.33
2018-10-07T17:39:45.493Z,7.87
2018-10-07T17:42:14.059Z,8.43
2018-10-07T17:44:42.440Z,9.60
2018-10-07T17:47:10.920Z,9.87
2018-10-07T17:49:39.366Z,10.57
2018-10-07T17:52:07.888Z,9.20
2018-10-07T17:54:36.483Z,10.53
2018-10-07T17:57:05.110Z,12.60
2018-10-07T17:59:33.779Z,11.80
2018-10-07T18:02:02.875Z,9.70
2018-10-07T18:04:31.439Z,10.90
2018-10-07T18:06:59.822Z,10.83
2018-10-07T18:09:28.344Z,12.30
2018-10-07T18:11:56.761Z,12.70
2018-10-07T18:14:25.249Z,12.77
2018-10-07T18:16:53.741Z,12.27
2018-10-07T18:19:22.331Z,13.03
2018-10-07T18:21:51.281Z,14.10
2018-10-07T18:24:20.064Z,14.20
2018-10-07T18:26:48.645Z,13.67
2018-10-07T18:29:17.192Z,14.23
2018-10-07T18:31:45.860Z,13.87
2018-10-07T18:34:14.416Z,13.43
2018-10-07T18:36:42.964Z,15.37
2018-10-07T18:39:11.414Z,15.10
2018-10-07T18:41:40.244Z,14.27
2018-10-07T18:44:09.089Z,15.17
2018-10-07T18:46:37.648Z,14.80
2018-10-07T18:49:06.578Z,15.50
2018-10-07T18:51:34.943Z,14.50
2018-10-07T18:54:03.413Z,15.07
2018-10-07T18:56:32.353Z,14.20
2018-10-07T18:59:00.887Z,15.80
2018-10-07T19:01:29.614Z,14.40
2018-10-07T19:03:58.334Z,14.93
2018-10-07T19:06:26.870Z,13.40
2018-10-07T19:08:55.324Z,15.00
2018-10-07T19:11:23.745Z,15.03
2018-10-07T19:13:52.284Z,14.93
2018-10-07T19:16:20.928Z,15.07
2018-10-07T19:18:49.528Z,15.40
2018-10-07T19:21:18.037Z,14.60
2018-10-07T19:23:46.424Z,15.30
2018-10-07T19:26:14.941Z,14.37
2018-10-07T19:28:43.580Z,15.97
2018-10-07T19:31:12.064Z,15.57
2018-10-07T19:33:40.599Z,14.23
2018-10-07T19:36:09.135Z,15.70
2018-10-07T19:38:37.782Z,14.43
2018-10-07T19:41:06.454Z,14.73
2018-10-07T19:43:35.189Z,14.73
2018-10-07T19:46:03.864Z,14.70
2018-10-07T19:48:32.311Z,14.67
2018-10-07T19:51:00.820Z,15.47
2018-10-07T19:53:29.407Z,16.40
2018-10-07T19:55:58.046Z,14.03
2018-10-07T19:58:26.666Z,15.87
2018-10-07T20:00:55.719Z,15.00
2018-10-07T20:03:24.567Z,14.67
2018-10-07T20:05:53.297Z,15.13
2018-10-07T20:08:22.372Z,15.80
2018-10-07T20:10:51.198Z,16.60
2018-10-07T20:13:19.792Z,15.10
2018-10-07T20:15:48.190Z,15.40
2018-10-07T20:18:16.950Z,15.77
2018-10-07T20:20:45.458Z,17.97
2018-10-07T20:23:14.313Z,17.03
2018-10-07T20:25:42.891Z,17.93
2018-10-07T20:28:11.777Z,16.53
2018-10-07T20:30:40.389Z,18.73
2018-10-07T20:33:08.883Z,16.73
2018-10-07T20:35:37.382Z,18.60
2018-10-07T20:38:07.249Z,17.27
2018-10-07T20:40:36.203Z,17.53
2018-10-07T20:43:04.682Z,16.50
2018-10-07T20:45:33.118Z,18.17
2018-10-07T20:48:01.515Z,18.23
2018-10-07T20:50:29.959Z,18.87
2018-10-07T20:52:58.453Z,18.40
2018-10-07T20:55:27.010Z,17.70
2018-10-07T20:57:55.480Z,18.83
2018-10-07T21:00:23.927Z,18.80
2018-10-07T21:02:52.478Z,17.93
2018-10-07T21:05:20.962Z,18.00
2018-10-07T21:07:49.595Z,16.90
2018-10-07T21:10:18.034Z,16.50
2018-10-07T21:12:46.618Z,18.00
2018-10-07T21:15:15.178Z,16.53
2018-10-07T21:17:43.584Z,18.10
2018-10-07T21:20:12.131Z,17.03
2018-10-07T21:22:40.565Z,17.27
2018-10-07T21:25:08.966Z,17.33
2018-10-07T21:27:37.385Z,17.10
2018-10-07T21:30:06.105Z,16.50
2018-10-07T21:32:34.737Z,15.90
2018-10-07T21:35:03.230Z,16.43
2018-10-07T21:37:31.795Z,17.90
2018-10-07T21:40:00.314Z,16.50
2018-10-07T21:42:28.723Z,16.37
2018-10-07T21:44:57.234Z,16.63
2018-10-07T21:47:25.826Z,17.00
2018-10-07T21:49:54.262Z,17.47
2018-10-07T21:52:23.098Z,17.53
2018-10-07T21:54:51.633Z,15.33
2018-10-07T21:57:20.103Z,16.00
2018-10-07T21:59:48.538Z,16.90
2018-10-07T22:02:17.035Z,16.70
2018-10-07T22:04:45.567Z,15.93
2018-10-07T22:07:14.011Z,17.90
2018-10-07T22:09:42.651Z,16.30
2018-10-07T22:12:11.078Z,17.27
2018-10-07T22:14:39.481Z,16.87
2018-10-07T22:17:08.002Z,17.37
2018-10-07T22:19:36.413Z,16.63
2018-10-07T22:22:04.870Z,17.00
2018-10-07T22:24:33.279Z,15.93
2018-10-07T22:27:01.825Z,17.97
2018-10-07T22:29:30.262Z,17.00
2018-10-07T22:31:58.674Z,17.93
2018-10-07T22:34:27.240Z,16.10
2018-10-07T22:36:55.762Z,17.43
2018-10-07T22:39:24.174Z,16.53
2018-10-07T22:41:52.607Z,16.70
2018-10-07T22:44:21.138Z,17.27
2018-10-07T22:46:49.713Z,16.00
2018-10-07T22:49:18.231Z,18.47
2018-10-07T22:51:46.726Z,15.53
2018-10-07T22:54:15.179Z,17.37
2018-10-07T22:56:43.619Z,17.60
2018-10-07T22:59:11.969Z,17.60
2018-10-07T23:01:40.530Z,17.60
2018-10-07T23:04:08.926Z,19.03
2018-10-07T23:06:37.436Z,17.13
2018-10-07T23:09:08.834Z,18.27
2018-10-07T23:11:37.411Z,17.50
2018-10-07T23:14:05.805Z,17.70
2018-10-07T23:16:34.274Z,16.80
2018-10-07T23:19:02.744Z,16.27
2018-10-07T23:21:31.143Z,16.37
2018-10-07T23:23:59.582Z,15.93
2018-10-07T23:26:28.040Z,17.73
2018-10-07T23:28:56.407Z,15.50
2018-10-07T23:31:24.850Z,17.13
2018-10-07T23:33:53.249Z,15.73
2018-10-07T23:36:21.914Z,16.63
2018-10-07T23:38:50.941Z,16.50
2018-10-07T23:41:21.455Z,18.07
2018-10-07T23:43:51.436Z,16.47
2018-10-07T23:46:21.270Z,18.03
2018-10-07T23:48:52.546Z,16.17
2018-10-07T23:51:22.099Z,17.40
2018-10-07T23:53:50.469Z,15.87
2018-10-07T23:56:18.847Z,15.90
2018-10-07T23:58:47.381Z,17.97
